Tropical Cyclones
[Index]
Main Index Home Page Stock Weather Photos Extreme Storms Discussion Storm News and Storm Chasing Reports Tropical Cyclones / Hurricanes / Typhoons Weather Data and Links Wild Fires / Bushfires Weather Observation Techniques Weather Picture Catalogue Tornado Pictures and Reports Stock Video Footage and DVDs for sale
Season 2002-2003 Tropical Cyclone ATANG Track Map
Season 2002-2003 Summaries: [BoM-AU] [JTWC-AU] [JTWC-SIO] [JTWC-SPAC] [JTWC-SH]
<<- Previous TC | JTWC 2002-2003 Season | Next TC ->>

click for intensity scale information  Lat/long Grid: Show Hide

 Date Labels: Show Hide

Joint Typhoon Warning Centre Cyclone Data

Name: ATANG

03 Nov 2002 06:00 UTC to 13 Nov 2002 00:00 UTC

    date/time    lat    long     hPa   cat  kts
2002-11-03 06    6.6    69.6    1006         15          
2002-11-03 12    6.8    68.4    1006         15          
2002-11-03 18    6.9    67.2    1004         20          
2002-11-04 00    7.2    66.0    1002         25          
2002-11-04 06    7.5    64.6    1002         25          
2002-11-04 12    7.6    63.3    1002         25          
2002-11-04 18    7.6    62.0    1002         25          
2002-11-05 00    7.6    61.2    1002         25          
2002-11-05 06    7.8    60.6    1002         25          
2002-11-05 12    8.1    60.2    1002         25          
2002-11-05 18    8.4    59.9    1002         25          
2002-11-06 00    8.8    59.7    1000         30          
2002-11-06 06    9.1    59.5     997         35          
2002-11-06 12    9.4    59.3     997         35          
2002-11-06 18    9.2    58.9     991    1    45          
2002-11-07 00    8.7    58.6     991    1    45          
2002-11-07 06    8.5    58.0     997         35          
2002-11-07 12    8.5    57.2     997         35          
2002-11-07 18    8.4    56.1     997         35          
2002-11-08 00    8.4    55.0    1000         30          
2002-11-08 06    8.4    54.0    1002         25          
2002-11-08 12    8.6    53.2    1002         25          
2002-11-08 18    9.2    52.7    1003         25          
2002-11-09 00    9.8    52.2    1000         30          
2002-11-09 06   10.5    52.0     997         35          
2002-11-09 12   11.0    51.5     997         35          
2002-11-09 18   11.5    50.9    1002         35          
2002-11-10 00   11.7    50.1     997         35          
2002-11-10 06   11.4    49.6     997         35          
2002-11-10 12   11.2    49.0    1002         25          
2002-11-10 18   11.2    48.1    1004         20          
2002-11-11 00   11.2    47.0    1002         25          
2002-11-11 06   11.2    45.8    1000         30          
2002-11-11 12   11.6    44.8     997         35          
2002-11-11 18   11.8    43.8     997         35          
2002-11-12 00   11.5    42.7     997         35          
2002-11-12 06   10.7    42.0    1000         30          
2002-11-12 12   10.2    41.1    1000         30          
2002-11-12 18   10.2    40.3    1000         30          
2002-11-13 00   10.2    39.4    1002         25          
Winds are 1-min average.

Tropical cyclone tracks developed by Michael Bath using data from the Joint Typhoon Warning Centre Best Tracks and Google Maps.


[Australian Severe Weather index] [Copyright Notice] [Email Contacts] [Search This Site] [Privacy Policy]
Document: tropical_cyclone_atang.htm Updated: 28 June 2017